Winnsboro, Louisiana
Current Conditions -  °F | °C
As of 11:53 PM on Tuesday 21 Oct 2014 (Local Time) from KMLU Reporting Station
Clear Clear  
Wind Chill: 62°   Ceiling: Unl
Heat Index: 62°   Visibility: 10mi
Dew Point: 59°   Wind: 3mph
Humidity: 90%   Direction: 40°NE
Pressure: 30.08"   Gusts: NA
Location:  32.17°N, 91.72°W
Report Text: KMLU 220453Z AUTO 04003KT 10SM CLR 17/15 A3008 RMK AO2 SLP185 T01670150
Loading
Personal Weather Stations






























Interactive Weather Map
Tropical Storm Tracking
New forecast layout! Learn more

10-Day Weather Forecast

Advertisements
Track Severe Weather on mobile